Terminal Aerodrome Forecast
Issued by NWS

Home | Current Version | Previous Version | Text Only | Print | Product List | Glossary On
Versions: 1 2 3 4 5 6 7 8 9 10 11 12 13 14 15
000
FTUS42 KMLB 160500
TAFTIX
TAF
KTIX 160539Z 1606/1706 VRB03KT P6SM FEW120 BKN200
     FM161400 28005KT P6SM SCT030 BKN200
     FM162000 08008KT P6SM VCTS SCT040CB BKN080
      TEMPO 1620/1623 3SM TSRA BKN035CB OVC050
     FM170000 26004KT P6SM VCSH SCT080 OVC150
      AMD NOT SKED TIL 161100=

USA.gov is the U.S. government's official web portal to all federal, state and local government web resources and services.